Terminal Aerodrome Forecast
Issued by NWS Wilmington, OH

Current Version | Previous Version | Text Only | Print | Product List | Glossary Off
Versions: 1 2 3 4 5 6 7 8 9 10 11 12 13 14 15 16 17 18 19 20

000
FTUS41 KILN 181120
TAFDAY
TAF
KDAY 181120Z 1812/1912 20015G25KT 6SM -SHRA OVC025 WS020/21055KT
     FM181500 19018G30KT 6SM -SHRA OVC015 WS020/22055KT
     FM181700 20018G33KT P6SM VCSH OVC012 WS020/22055KT
     FM182200 23018G33KT 2SM +SHRA VCTS OVC012CB WS020/22055KT
     FM190000 31020G34KT 4SM -SHRA BR OVC012
     FM190400 31018G33KT P6SM OVC018
     FM191000 30014G23KT P6SM OVC022=

USA.gov is the U.S. government's official web portal to all federal, state and local government web resources and services.